Aviation Digital Data Service (ADDS)

Output produced by METARs form (2036 UTC 28 August 2016)
found at http://www.aviationweather.gov/adds/metars/
 
KDCA 281721Z 2818/2918 VRB03KT P6SM FEW050 
     FM290700 00000KT P6SM SKC